Time;durP1;ratioP1;P1;durP2;ratioP2;P2;SDS_P1;SDS_P2;PMS_P1;PMS_P2;Temp;Humidity;BMP_temperature;BMP_pressure;BME280_temperature;BME280_humidity;BME280_pressure;Samples;Min_cycle;Max_cycle;Signal;HPM_P1;HPM_P2
2022/04/08 00:01:44;;;;;;;1.63;1.00;;;;;;;12.87;54.12;97224.34;5088468;28;20040;-73
2022/04/08 00:04:13;;;;;;;1.25;1.15;;;;;;;12.86;53.66;97201.41;5088514;28;20041;-73
2022/04/08 00:06:44;;;;;;;1.40;1.05;;;;;;;12.66;53.47;97192.75;5088308;28;20057;-73
2022/04/08 00:09:15;;;;;;;1.77;1.27;;;;;;;12.82;54.48;97216.00;5088540;28;20040;-73
2022/04/08 00:11:44;;;;;;;2.25;1.42;;;;;;;12.74;54.08;97205.28;5071326;28;20047;-73
2022/04/08 00:14:18;;;;;;;1.27;0.93;;;;;;;12.67;54.54;97233.44;5088709;28;20097;-73
2022/04/08 00:16:51;;;;;;;1.25;0.93;;;;;;;12.55;55.39;97214.22;5088707;28;20082;-73
2022/04/08 00:19:20;;;;;;;2.75;1.15;;;;;;;12.48;54.76;97234.38;5088677;28;20060;-72
2022/04/08 00:21:51;;;;;;;1.52;1.10;;;;;;;12.36;55.33;97201.03;5088373;28;20036;-73
2022/04/08 00:24:21;;;;;;;3.30;1.10;;;;;;;12.32;56.03;97227.06;5088177;28;20044;-72
2022/04/08 00:26:51;;;;;;;1.67;1.10;;;;;;;12.29;55.82;97247.75;5088137;28;20103;-72
2022/04/08 00:29:21;;;;;;;3.03;1.30;;;;;;;11.39;55.89;97100.50;5088144;28;20060;-73
2022/04/08 00:31:57;;;;;;;1.00;0.90;;;;;;;12.16;56.24;97242.75;5088454;28;20147;-72
2022/04/08 00:34:29;;;;;;;1.67;1.17;;;;;;;12.07;56.05;97259.53;5070807;28;20086;-73
2022/04/08 00:37:02;;;;;;;1.77;1.05;;;;;;;12.05;56.65;97264.16;5070481;28;20067;-73
2022/04/08 00:39:34;;;;;;;1.92;1.00;;;;;;;11.97;55.58;97264.00;5088014;28;20067;-73
2022/04/08 00:42:07;;;;;;;2.78;1.27;;;;;;;11.95;56.48;97255.34;5070981;28;20041;-73
2022/04/08 00:44:39;;;;;;;1.88;1.08;;;;;;;11.92;55.70;97268.91;5093516;28;20044;-72
2022/04/08 00:47:13;;;;;;;1.98;1.02;;;;;;;11.87;56.49;97285.28;5092456;28;20040;-72
2022/04/08 00:49:46;;;;;;;1.30;1.00;;;;;;;11.76;56.86;97304.84;5092297;28;20040;-72
2022/04/08 00:52:18;;;;;;;4.53;1.30;;;;;;;10.75;57.16;97174.50;5090928;28;20040;-72
2022/04/08 00:54:51;;;;;;;2.00;1.10;;;;;;;11.75;56.77;97331.53;5074417;28;20085;-72
2022/04/08 00:57:24;;;;;;;1.88;1.20;;;;;;;11.70;55.78;97323.16;5072929;28;20048;-72
2022/04/08 00:59:56;;;;;;;1.33;1.00;;;;;;;11.77;55.94;97321.59;5087951;28;20094;-73
2022/04/08 01:02:30;;;;;;;4.10;1.70;;;;;;;11.75;56.37;97335.00;5087831;28;20074;-72
2022/04/08 01:05:02;;;;;;;1.85;1.20;;;;;;;11.80;55.45;97353.16;5087932;28;20285;-72
2022/04/08 01:07:35;;;;;;;1.85;1.10;;;;;;;11.79;55.25;97376.22;5087804;28;20049;-75
2022/04/08 01:10:08;;;;;;;1.27;1.00;;;;;;;10.40;55.87;97156.47;5070718;28;20098;-72
2022/04/08 01:12:41;;;;;;;2.88;1.02;;;;;;;11.73;55.78;97382.09;5071445;28;20033;-72
2022/04/08 01:15:14;;;;;;;1.17;1.00;;;;;;;11.72;56.66;97377.75;5087765;28;20174;-72
2022/04/08 01:17:48;;;;;;;1.25;1.00;;;;;;;11.36;57.44;97333.34;5087897;28;20040;-72
2022/04/08 01:20:24;;;;;;;1.52;1.00;;;;;;;11.67;56.47;97389.75;5053739;28;20045;-74
2022/04/08 01:22:56;;;;;;;2.33;1.20;;;;;;;11.66;57.09;97404.84;5087702;28;20087;-74
2022/04/08 01:25:33;;;;;;;2.60;1.30;;;;;;;11.38;57.21;97364.06;5087996;28;20040;-73
2022/04/08 01:28:06;;;;;;;3.03;1.10;;;;;;;11.58;56.58;97412.66;5070416;28;20099;-73
2022/04/08 01:30:40;;;;;;;2.13;1.25;;;;;;;11.55;56.61;97439.47;5070546;28;20094;-73
2022/04/08 01:33:13;;;;;;;1.15;1.00;;;;;;;11.46;55.19;97406.63;5070688;28;20095;-73
2022/04/08 01:35:45;;;;;;;2.20;1.25;;;;;;;11.38;53.82;97400.34;5069930;28;20040;-72
2022/04/08 01:38:17;;;;;;;1.77;1.15;;;;;;;11.37;53.37;97436.63;5087277;28;20284;-73
2022/04/08 01:40:51;;;;;;;2.30;1.60;;;;;;;11.30;53.35;97430.19;5086883;28;20051;-72
2022/04/08 01:43:23;;;;;;;3.05;1.33;;;;;;;11.20;53.64;97422.22;5087159;28;20048;-73
2022/04/08 01:45:55;;;;;;;2.45;1.45;;;;;;;11.22;53.28;97416.78;5086968;28;20048;-73
2022/04/08 01:48:28;;;;;;;2.55;1.40;;;;;;;11.26;53.30;97449.16;5087104;28;20036;-73
2022/04/08 01:51:00;;;;;;;1.95;1.17;;;;;;;11.27;54.06;97434.94;5086689;28;20044;-72
2022/04/08 01:53:32;;;;;;;2.17;1.10;;;;;;;11.28;54.46;97439.25;5069640;28;20181;-73
2022/04/08 01:56:06;;;;;;;2.42;1.27;;;;;;;10.01;56.23;97248.16;5086100;28;20086;-73
2022/04/08 01:58:38;;;;;;;2.40;1.58;;;;;;;11.06;55.50;97450.91;5087204;28;20041;-73
2022/04/08 02:01:11;;;;;;;2.80;1.50;;;;;;;11.01;55.16;97439.88;5069520;28;20090;-73
2022/04/08 02:03:43;;;;;;;2.03;1.30;;;;;;;10.93;55.58;97435.22;5086716;28;20138;-72
2022/04/08 02:06:16;;;;;;;1.83;1.30;;;;;;;10.80;54.93;97429.31;5086357;28;20049;-73
2022/04/08 02:08:50;;;;;;;4.13;1.40;;;;;;;10.73;55.26;97426.31;5086390;28;20040;-73
2022/04/08 02:11:23;;;;;;;3.10;1.20;;;;;;;8.73;55.13;97095.94;5086431;28;20045;-73
2022/04/08 02:13:56;;;;;;;2.33;1.10;;;;;;;10.17;54.85;97394.09;5068869;28;20085;-73
2022/04/08 02:16:28;;;;;;;3.22;1.30;;;;;;;10.56;55.15;97430.41;5068901;28;20128;-73
2022/04/08 02:19:01;;;;;;;3.17;1.58;;;;;;;10.47;55.48;97447.09;5086172;28;20086;-73
2022/04/08 02:21:34;;;;;;;2.63;1.38;;;;;;;10.46;55.31;97437.47;5086095;28;20040;-73
2022/04/08 02:24:07;;;;;;;2.90;1.85;;;;;;;10.43;55.58;97435.09;5086099;28;20044;-73
2022/04/08 02:26:41;;;;;;;4.05;1.67;;;;;;;10.42;55.39;97462.53;5086081;28;20040;-73
2022/04/08 02:29:14;;;;;;;3.53;1.30;;;;;;;10.28;55.88;97466.34;5086083;28;20044;-73
2022/04/08 02:31:46;;;;;;;5.72;1.45;;;;;;;10.20;56.04;97468.78;5068655;28;20045;-73
2022/04/08 02:34:18;;;;;;;2.25;1.48;;;;;;;9.52;55.65;97397.75;5085975;28;20041;-73
2022/04/08 02:36:51;;;;;;;2.70;1.42;;;;;;;10.07;55.50;97488.47;5086203;28;20040;-73
2022/04/08 02:39:21;;;;;;;3.15;1.60;;;;;;;10.03;55.50;97479.09;5069330;28;20032;-73
2022/04/08 02:41:52;;;;;;;2.90;1.90;;;;;;;10.03;55.27;97498.47;5068621;28;20312;-73
2022/04/08 02:44:22;;;;;;;2.83;1.42;;;;;;;10.01;55.11;97478.38;5086173;28;20288;-73
2022/04/08 02:46:51;;;;;;;5.55;1.50;;;;;;;9.98;55.35;97478.63;5086179;28;20046;-73
2022/04/08 02:49:21;;;;;;;5.20;1.88;;;;;;;9.88;55.26;97484.69;5085781;28;20205;-73
2022/04/08 02:51:51;;;;;;;2.10;1.30;;;;;;;9.88;54.95;97502.38;5068391;28;20044;-74
2022/04/08 02:54:22;;;;;;;6.50;1.83;;;;;;;9.54;54.86;97448.72;5086141;28;20119;-74
2022/04/08 02:56:53;;;;;;;3.90;1.95;;;;;;;9.83;55.02;97518.63;5068364;28;20216;-74
2022/04/08 02:59:22;;;;;;;2.65;1.48;;;;;;;9.82;54.88;97524.03;5067440;28;20056;-75
2022/04/08 03:01:52;;;;;;;2.72;1.60;;;;;;;9.79;54.63;97519.00;5085806;28;20090;-74
2022/04/08 03:04:22;;;;;;;7.70;1.58;;;;;;;9.77;54.65;97508.53;5085909;28;20289;-74
2022/04/08 03:06:52;;;;;;;4.38;1.60;;;;;;;9.71;54.74;97513.47;5085089;28;20250;-74
2022/04/08 03:09:23;;;;;;;3.05;1.65;;;;;;;9.69;54.72;97520.69;5085489;28;20316;-74
2022/04/08 03:11:54;;;;;;;2.85;1.63;;;;;;;9.66;54.71;97542.09;5051861;28;20063;-74
2022/04/08 03:14:22;;;;;;;2.50;1.55;;;;;;;9.63;54.93;97506.16;5085638;28;20045;-74
2022/04/08 03:16:53;;;;;;;6.05;1.80;;;;;;;9.65;55.11;97506.03;5068048;28;20098;-74
2022/04/08 03:19:23;;;;;;;2.92;1.35;;;;;;;8.80;55.06;97358.59;5085858;28;20064;-74
2022/04/08 03:21:53;;;;;;;2.55;1.30;;;;;;;9.63;54.93;97477.06;5085732;28;20043;-75
2022/04/08 03:24:23;;;;;;;4.03;1.88;;;;;;;9.61;54.76;97476.34;5085825;28;20040;-75
2022/04/08 03:26:56;;;;;;;3.50;1.42;;;;;;;9.58;54.87;97509.19;5085740;28;20040;-75
2022/04/08 03:29:23;;;;;;;3.20;1.50;;;;;;;8.97;54.97;97416.19;5085417;28;20044;-75
2022/04/08 03:31:53;;;;;;;2.97;1.55;;;;;;;9.48;54.66;97495.00;5085589;28;20249;-75
2022/04/08 03:34:23;;;;;;;4.82;2.20;;;;;;;9.51;54.52;97499.22;5068115;28;20293;-75
2022/04/08 03:36:53;;;;;;;3.67;1.50;;;;;;;9.49;54.58;97496.69;5068034;28;20303;-75
2022/04/08 03:39:24;;;;;;;5.43;1.67;;;;;;;9.48;54.11;97513.53;5068875;28;20045;-75
2022/04/08 03:41:55;;;;;;;4.00;1.88;;;;;;;9.52;53.82;97535.28;5085356;28;20098;-75
2022/04/08 03:44:24;;;;;;;4.13;1.70;;;;;;;9.18;53.98;97486.81;5085105;28;20293;-74
2022/04/08 03:46:54;;;;;;;4.22;1.67;;;;;;;9.46;53.80;97519.91;5085110;28;20243;-74
2022/04/08 03:49:26;;;;;;;5.82;1.80;;;;;;;9.44;53.87;97504.16;5085225;28;20040;-74
2022/04/08 03:51:55;;;;;;;3.88;2.05;;;;;;;9.48;53.50;97521.44;5085148;28;20056;-74
2022/04/08 03:54:24;;;;;;;3.50;1.35;;;;;;;8.37;53.46;97342.63;5085520;28;20064;-74
2022/04/08 03:56:56;;;;;;;8.43;2.40;;;;;;;9.41;53.63;97496.47;5051088;28;20120;-73
2022/04/08 03:59:25;;;;;;;5.35;1.95;;;;;;;9.39;53.57;97500.16;5085105;28;20082;-74
2022/04/08 04:01:55;;;;;;;5.50;1.95;;;;;;;9.37;53.42;97500.28;5085018;28;20048;-74
2022/04/08 04:04:27;;;;;;;3.92;1.80;;;;;;;9.38;53.17;97524.91;5084995;28;20036;-74
2022/04/08 04:06:55;;;;;;;2.72;1.40;;;;;;;9.43;53.10;97512.22;5084622;28;20193;-74
2022/04/08 04:09:26;;;;;;;4.82;1.83;;;;;;;9.40;52.96;97510.66;5085021;28;20182;-74
2022/04/08 04:11:57;;;;;;;2.53;1.38;;;;;;;9.37;53.03;97525.88;5084965;28;20250;-75
2022/04/08 04:14:26;;;;;;;4.45;2.25;;;;;;;9.12;53.10;97493.41;5067763;28;20045;-74
2022/04/08 04:16:56;;;;;;;2.63;1.40;;;;;;;9.08;53.21;97477.94;5085129;28;20036;-74
2022/04/08 04:19:26;;;;;;;4.70;1.45;;;;;;;9.08;53.52;97462.91;5085864;28;20032;-73
2022/04/08 04:21:56;;;;;;;2.92;1.67;;;;;;;9.34;53.46;97512.91;5088949;28;20103;-73
2022/04/08 04:24:26;;;;;;;2.88;1.52;;;;;;;9.05;53.72;97494.88;5088645;28;20048;-75
2022/04/08 04:26:58;;;;;;;3.00;1.30;;;;;;;9.31;54.10;97549.19;5088850;28;20075;-72
2022/04/08 04:29:27;;;;;;;4.97;1.70;;;;;;;9.24;54.10;97555.91;5086946;28;20082;-72
2022/04/08 04:31:59;;;;;;;6.00;1.77;;;;;;;9.21;54.44;97574.66;5088802;28;20044;-73
2022/04/08 04:34:27;;;;;;;5.00;2.05;;;;;;;9.22;54.46;97572.88;5070960;28;20304;-73
2022/04/08 04:36:57;;;;;;;2.53;1.60;;;;;;;9.22;54.64;97568.41;5088240;28;20049;-72
2022/04/08 04:39:27;;;;;;;5.22;1.73;;;;;;;9.24;54.46;97582.34;5088392;28;20059;-73
2022/04/08 04:41:59;;;;;;;3.03;1.50;;;;;;;9.23;54.77;97585.97;5088151;28;20107;-72
2022/04/08 04:44:28;;;;;;;4.28;1.50;;;;;;;9.22;54.69;97610.72;5087997;28;20052;-72
2022/04/08 04:46:58;;;;;;;2.50;1.52;;;;;;;9.22;55.02;97631.00;5088729;28;20028;-73
2022/04/08 04:49:29;;;;;;;2.08;1.42;;;;;;;9.11;54.76;97638.88;5088461;28;20059;-72
2022/04/08 04:51:57;;;;;;;3.50;1.70;;;;;;;9.00;54.29;97581.56;5087794;28;20177;-73
2022/04/08 04:54:28;;;;;;;4.60;1.63;;;;;;;9.26;54.24;97628.00;5087788;28;20079;-73
2022/04/08 04:56:59;;;;;;;3.42;1.60;;;;;;;9.29;54.16;97622.50;5070333;28;20064;-73
2022/04/08 04:59:28;;;;;;;5.18;1.92;;;;;;;9.32;54.29;97621.41;5087817;28;20107;-73
2022/04/08 05:01:58;;;;;;;2.50;1.48;;;;;;;9.30;54.26;97645.31;5087842;28;20099;-72
2022/04/08 05:04:30;;;;;;;4.00;1.55;;;;;;;9.31;54.41;97632.94;5087648;28;20091;-73
2022/04/08 05:06:58;;;;;;;4.53;2.00;;;;;;;9.34;54.13;97622.13;5087552;28;20063;-73
2022/04/08 05:09:29;;;;;;;4.22;1.77;;;;;;;9.36;53.79;97617.56;5070017;28;20044;-73
2022/04/08 05:12:00;;;;;;;4.00;1.40;;;;;;;9.37;53.50;97634.28;5087606;28;20040;-73
2022/04/08 05:14:30;;;;;;;4.65;1.67;;;;;;;9.09;53.51;97604.66;5087404;28;20036;-73
2022/04/08 05:16:59;;;;;;;4.97;1.50;;;;;;;8.08;53.30;97428.47;5069952;28;20090;-73
2022/04/08 05:19:29;;;;;;;2.95;1.75;;;;;;;9.42;53.53;97662.09;5087804;28;20044;-73
2022/04/08 05:21:59;;;;;;;6.78;2.08;;;;;;;9.35;53.46;97626.47;5087127;28;20040;-73
2022/04/08 05:24:29;;;;;;;2.97;1.50;;;;;;;9.36;53.41;97624.66;5070485;28;20032;-73
2022/04/08 05:27:01;;;;;;;4.97;1.85;;;;;;;9.12;53.17;97617.63;5087128;28;20339;-73
2022/04/08 05:29:29;;;;;;;3.60;1.50;;;;;;;9.41;53.14;97648.97;5069604;28;20277;-73
2022/04/08 05:31:59;;;;;;;3.67;1.65;;;;;;;9.44;52.93;97669.91;5086989;28;20274;-73
2022/04/08 05:34:31;;;;;;;3.28;1.35;;;;;;;9.46;52.87;97692.63;5086920;28;20242;-73
2022/04/08 05:37:00;;;;;;;6.38;1.52;;;;;;;9.16;53.12;97639.38;5086762;28;20323;-73
2022/04/08 05:39:30;;;;;;;6.35;1.85;;;;;;;9.47;53.16;97711.97;5087180;28;20248;-73
2022/04/08 05:42:02;;;;;;;3.85;1.55;;;;;;;9.49;53.22;97708.25;5086918;28;20100;-73
2022/04/08 05:44:30;;;;;;;3.30;1.30;;;;;;;9.44;53.33;97706.91;5069592;28;20064;-75
2022/04/08 05:47:00;;;;;;;4.05;1.80;;;;;;;9.46;53.51;97707.63;5086895;28;20040;-75
2022/04/08 05:49:30;;;;;;;3.83;2.08;;;;;;;9.44;53.43;97712.19;5069528;28;20108;-73
2022/04/08 05:52:01;;;;;;;5.57;3.88;;;;;;;9.46;53.55;97728.78;5086812;28;20049;-72
2022/04/08 05:54:31;;;;;;;3.40;1.70;;;;;;;9.47;52.97;97720.75;5086866;28;20041;-73
2022/04/08 05:57:03;;;;;;;2.92;1.60;;;;;;;9.47;52.80;97723.38;5086771;28;20094;-73
2022/04/08 05:59:32;;;;;;;5.82;1.98;;;;;;;9.52;52.21;97739.75;5086424;28;20102;-73
2022/04/08 06:02:01;;;;;;;3.22;1.30;;;;;;;9.55;52.03;97728.09;5069051;28;20044;-72
2022/04/08 06:04:31;;;;;;;3.08;1.50;;;;;;;9.55;51.59;97734.22;5086753;28;20044;-75
2022/04/08 06:07:01;;;;;;;2.42;1.48;;;;;;;9.54;51.41;97736.97;5068996;28;20063;-72
2022/04/08 06:09:33;;;;;;;3.75;1.60;;;;;;;9.56;51.08;97786.16;5086353;28;20063;-73
2022/04/08 06:12:03;;;;;;;3.25;1.45;;;;;;;9.53;50.54;97745.88;5086781;28;20033;-72
2022/04/08 06:14:32;;;;;;;4.97;1.60;;;;;;;9.62;50.89;97747.81;5069195;28;20040;-73
2022/04/08 06:17:02;;;;;;;2.65;1.67;;;;;;;9.65;50.70;97763.44;5085932;28;20204;-75
2022/04/08 06:19:32;;;;;;;4.05;1.38;;;;;;;8.17;50.70;97646.81;5086113;28;20040;-73
2022/04/08 06:22:02;;;;;;;2.50;1.92;;;;;;;9.64;51.09;97764.41;5069022;28;20284;-74
2022/04/08 06:24:32;;;;;;;3.67;1.83;;;;;;;9.71;51.20;97767.44;5086248;28;20211;-73
2022/04/08 06:27:07;;;;;;;2.85;2.00;;;;;;;9.75;50.88;97784.75;5086017;28;20048;-73
2022/04/08 06:29:37;;;;;;;3.45;1.52;;;;;;;9.66;50.63;97783.66;5085866;28;20299;-73
2022/04/08 06:32:08;;;;;;;3.35;1.27;;;;;;;9.61;50.32;97781.34;5086223;28;20040;-73
2022/04/08 06:34:38;;;;;;;5.43;2.03;;;;;;;9.62;50.80;97785.69;5085809;28;20375;-73
2022/04/08 06:37:08;;;;;;;2.47;1.30;;;;;;;9.67;51.00;97789.78;5085819;28;20169;-73
2022/04/08 06:39:38;;;;;;;3.38;1.50;;;;;;;9.68;51.06;97807.34;5068742;28;20086;-73
2022/04/08 06:42:10;;;;;;;2.67;1.63;;;;;;;9.74;51.18;97791.84;5067871;28;20047;-73
2022/04/08 06:44:38;;;;;;;2.55;1.30;;;;;;;9.80;51.32;97786.09;5068368;28;20040;-73
2022/04/08 06:47:09;;;;;;;2.70;1.38;;;;;;;9.86;51.55;97805.94;5085650;28;20060;-73
2022/04/08 06:49:43;;;;;;;2.60;1.70;;;;;;;9.87;51.70;97819.06;5085928;28;20032;-73
2022/04/08 06:52:16;;;;;;;3.50;1.67;;;;;;;9.10;51.71;97661.84;5068347;28;20055;-74
2022/04/08 06:54:49;;;;;;;5.80;1.58;;;;;;;9.69;51.69;97767.53;5085816;28;20040;-73
2022/04/08 06:57:22;;;;;;;3.25;1.48;;;;;;;9.98;51.76;97810.28;5085755;28;20063;-73
2022/04/08 06:59:55;;;;;;;3.33;2.00;;;;;;;9.97;51.44;97798.03;5085786;28;20223;-73
2022/04/08 07:02:27;;;;;;;3.97;1.50;;;;;;;9.73;51.82;97784.88;5085351;28;20052;-73
2022/04/08 07:05:00;;;;;;;4.35;1.92;;;;;;;10.09;51.52;97823.53;5068851;28;20055;-73
2022/04/08 07:07:33;;;;;;;3.53;1.70;;;;;;;10.08;51.63;97831.59;5085328;28;20110;-73
2022/04/08 07:10:08;;;;;;;2.75;1.45;;;;;;;10.10;51.72;97841.09;5085394;28;20334;-73
2022/04/08 07:12:42;;;;;;;2.83;1.38;;;;;;;9.81;51.49;97787.78;5085315;28;20072;-73
2022/04/08 07:15:14;;;;;;;3.88;1.60;;;;;;;9.72;51.48;97762.03;5067711;28;20224;-73
2022/04/08 07:17:47;;;;;;;3.92;1.75;;;;;;;10.20;51.37;97844.72;5085548;28;20044;-73
2022/04/08 07:20:19;;;;;;;3.50;1.60;;;;;;;10.26;51.07;97840.75;5085255;28;20086;-74
2022/04/08 07:22:53;;;;;;;5.15;1.80;;;;;;;10.27;51.35;97840.66;5085462;28;20059;-73
2022/04/08 07:25:25;;;;;;;3.05;1.80;;;;;;;10.02;51.25;97800.31;5085267;28;20063;-74
2022/04/08 07:27:59;;;;;;;2.95;1.90;;;;;;;10.29;50.70;97837.88;5068126;28;20292;-74
2022/04/08 07:30:32;;;;;;;5.40;1.55;;;;;;;10.28;51.30;97850.28;5067983;28;20040;-74
2022/04/08 07:33:05;;;;;;;2.90;1.83;;;;;;;10.33;51.33;97859.66;5085066;28;20040;-73
2022/04/08 07:35:39;;;;;;;2.55;1.48;;;;;;;10.22;51.31;97856.03;5067727;28;20055;-74
2022/04/08 07:38:11;;;;;;;3.10;1.52;;;;;;;10.28;51.31;97894.44;5084930;28;20301;-74
2022/04/08 07:40:44;;;;;;;5.20;1.60;;;;;;;10.28;51.31;97892.63;5067443;28;20040;-74
2022/04/08 07:43:19;;;;;;;3.75;1.50;;;;;;;9.92;51.52;97861.88;5067566;28;20197;-74
2022/04/08 07:45:51;;;;;;;2.60;1.70;;;;;;;10.23;51.58;97876.25;5085186;28;20041;-73
2022/04/08 07:48:24;;;;;;;5.35;1.65;;;;;;;10.29;51.57;97898.78;5084853;28;20102;-73
2022/04/08 07:50:56;;;;;;;4.13;2.63;;;;;;;10.38;51.44;97883.97;5067566;28;20120;-74
2022/04/08 07:53:28;;;;;;;3.90;1.35;;;;;;;10.43;51.20;97882.66;5085643;28;20087;-74
2022/04/08 07:56:01;;;;;;;4.93;1.92;;;;;;;10.49;51.27;97884.84;5088582;28;20097;-74
2022/04/08 07:58:35;;;;;;;4.50;1.63;;;;;;;10.46;51.04;97903.63;5088672;28;20289;-74
2022/04/08 08:01:08;;;;;;;2.55;1.50;;;;;;;9.83;51.05;97816.75;5088610;28;20052;-74
2022/04/08 08:03:42;;;;;;;3.00;1.50;;;;;;;10.39;51.01;97928.88;5088573;28;20044;-74
2022/04/08 08:06:15;;;;;;;4.27;1.97;;;;;;;10.09;50.98;97900.31;5088338;28;20262;-74
2022/04/08 08:08:50;;;;;;;4.77;2.00;;;;;;;10.39;50.97;97951.88;5088438;28;20086;-74
2022/04/08 08:11:23;;;;;;;4.18;1.63;;;;;;;10.46;50.71;97926.59;5088500;28;20292;-74
2022/04/08 08:13:58;;;;;;;2.58;1.70;;;;;;;10.49;50.77;97944.91;5088507;28;20048;-74
2022/04/08 08:16:30;;;;;;;8.05;1.95;;;;;;;10.51;50.75;97962.38;5088336;28;20045;-74
2022/04/08 08:19:03;;;;;;;3.97;1.52;;;;;;;10.52;50.67;97936.72;5072051;28;20242;-74
2022/04/08 08:21:37;;;;;;;5.25;1.80;;;;;;;10.28;50.83;97918.28;5088252;28;20196;-74
2022/04/08 08:24:10;;;;;;;3.15;1.75;;;;;;;10.29;50.73;97919.97;5071790;28;20071;-74
2022/04/08 08:26:42;;;;;;;2.97;1.30;;;;;;;10.58;50.90;97945.03;5088408;28;20082;-74
2022/04/08 08:29:16;;;;;;;4.97;1.83;;;;;;;10.60;50.88;97952.88;5070877;28;20228;-74
2022/04/08 08:31:49;;;;;;;3.17;1.88;;;;;;;10.59;51.34;97980.34;5088130;28;20200;-73
2022/04/08 08:34:21;;;;;;;4.80;1.88;;;;;;;10.55;51.32;97963.81;5087753;28;20048;-75
2022/04/08 08:36:59;;;;;;;3.30;1.60;;;;;;;10.50;51.54;97955.41;5088220;28;20045;-75
2022/04/08 08:39:33;;;;;;;3.72;1.65;;;;;;;10.49;51.67;97953.69;5088119;28;20040;-73
2022/04/08 08:42:06;;;;;;;2.63;1.40;;;;;;;10.46;51.50;97948.66;5088113;28;20115;-75
2022/04/08 08:44:37;;;;;;;4.53;1.40;;;;;;;10.45;51.37;97978.75;5087817;28;20239;-74
2022/04/08 08:47:11;;;;;;;3.70;1.80;;;;;;;10.47;51.23;97945.03;5088134;28;20311;-74
2022/04/08 08:49:46;;;;;;;3.85;2.00;;;;;;;10.49;51.09;97969.59;5070476;28;20312;-74
2022/04/08 08:52:19;;;;;;;3.55;1.40;;;;;;;10.48;51.01;97943.22;5070558;28;20045;-73
2022/04/08 08:54:53;;;;;;;3.17;1.30;;;;;;;10.21;50.76;97902.00;5038061;28;20052;-75
2022/04/08 08:57:25;;;;;;;5.55;1.60;;;;;;;10.51;50.75;97935.88;5087910;28;20098;-72
2022/04/08 09:00:06;;;;;;;3.28;1.42;;;;;;;10.53;50.53;97933.97;5070368;28;20052;-72
2022/04/08 09:02:39;;;;;;;3.65;1.90;;;;;;;10.58;50.45;97934.44;5087580;28;20067;-73
2022/04/08 09:05:14;;;;;;;9.50;2.58;;;;;;;10.62;50.55;97929.75;5069869;28;20050;-73
2022/04/08 09:07:55;;;;;;;2.60;1.58;;;;;;;10.68;50.08;97918.69;5067718;28;20079;-73
2022/04/08 09:10:29;;;;;;;3.13;1.90;;;;;;;10.74;50.09;97920.00;5067903;28;20041;-73
2022/04/08 09:13:02;;;;;;;3.77;1.97;;;;;;;10.78;49.38;97937.38;5050433;28;20044;-73
2022/04/08 09:15:39;;;;;;;2.83;1.50;;;;;;;10.59;49.31;97879.66;5050060;28;20057;-73
2022/04/08 09:18:13;;;;;;;3.28;1.88;;;;;;;10.88;48.88;97930.41;5067333;28;20041;-73
2022/04/08 09:20:48;;;;;;;3.63;1.50;;;;;;;10.89;49.22;97927.63;5067208;28;20297;-73
2022/04/08 09:23:21;;;;;;;2.35;1.33;;;;;;;10.71;48.78;97878.69;5067474;28;20086;-74
2022/04/08 09:26:00;;;;;;;2.78;1.40;;;;;;;11.03;48.25;97902.66;5067164;28;20045;-74
2022/04/08 09:28:35;;;;;;;2.45;1.30;;;;;;;11.15;48.74;97911.44;5066865;28;20083;-74
2022/04/08 09:31:16;;;;;;;;;;;;;;;11.14;46.97;97925.69;5067487;28;20290;-74
2022/04/08 09:33:49;;;;;;;4.38;1.70;;;;;;;11.20;47.96;97909.28;5066963;28;19921;-74
2022/04/08 09:36:30;;;;;;;3.20;1.50;;;;;;;10.41;46.74;97821.03;5066986;28;20051;-74
2022/04/08 09:39:10;;;;;;;4.15;1.58;;;;;;;11.26;47.04;97918.53;5067027;28;20037;-74
2022/04/08 09:41:44;;;;;;;2.65;1.35;;;;;;;11.33;47.20;97922.38;5066855;28;20041;-74
2022/04/08 09:44:25;;;;;;;2.33;1.50;;;;;;;9.84;46.66;97671.13;5049523;28;20049;-74
2022/04/08 09:47:00;;;;;;;3.72;1.98;;;;;;;11.39;47.87;97906.81;5049666;28;20041;-74
2022/04/08 09:49:32;;;;;;;2.63;1.33;;;;;;;11.48;46.97;97899.91;5049496;28;20048;-74
2022/04/08 09:52:06;;;;;;;3.55;2.10;;;;;;;11.53;46.75;97895.06;5066864;28;20289;-74
2022/04/08 09:54:37;;;;;;;2.45;1.50;;;;;;;11.69;46.99;97897.31;5066459;28;20108;-74
2022/04/08 09:57:11;;;;;;;3.88;1.55;;;;;;;11.84;46.56;97880.97;5066224;28;20087;-74
2022/04/08 09:59:45;;;;;;;3.38;1.70;;;;;;;12.09;45.65;97879.78;5049474;28;20045;-74
2022/04/08 10:02:20;;;;;;;3.22;1.40;;;;;;;12.22;45.56;97889.38;5049163;28;20044;-74
2022/04/08 10:04:55;;;;;;;5.30;1.70;;;;;;;12.29;45.09;97872.78;5049775;28;20178;-74
2022/04/08 10:07:28;;;;;;;2.60;1.85;;;;;;;12.41;45.71;97874.41;5084589;28;20068;-74
2022/04/08 10:10:05;;;;;;;3.63;1.90;;;;;;;12.42;44.28;97873.44;5086478;28;20041;-74
2022/04/08 10:12:46;;;;;;;2.75;1.50;;;;;;;11.36;43.89;97694.03;5068828;28;20319;-74
2022/04/08 10:15:27;;;;;;;3.88;2.05;;;;;;;12.32;43.76;97866.38;5086464;28;20044;-74
2022/04/08 10:18:03;;;;;;;3.25;1.80;;;;;;;11.68;43.74;97803.59;5067969;28;20071;-74
2022/04/08 10:20:38;;;;;;;2.50;1.40;;;;;;;12.36;44.91;97847.38;5086044;28;20040;-74
2022/04/08 10:23:11;;;;;;;3.03;1.80;;;;;;;12.35;44.93;97851.00;5068681;28;20056;-74
2022/04/08 10:25:48;;;;;;;2.83;1.40;;;;;;;12.43;43.71;97847.69;5085857;28;20048;-74
2022/04/08 10:28:20;;;;;;;4.28;2.03;;;;;;;12.21;43.43;97808.88;5085656;28;20067;-74
2022/04/08 10:30:52;;;;;;;3.17;1.55;;;;;;;12.52;43.59;97839.78;5085842;28;20040;-74
2022/04/08 10:33:27;;;;;;;2.85;1.52;;;;;;;12.54;42.84;97825.50;5085599;28;20040;-74
2022/04/08 10:36:03;;;;;;;2.47;1.20;;;;;;;12.33;42.67;97789.22;5068291;28;20059;-74
2022/04/08 10:38:36;;;;;;;4.35;1.40;;;;;;;12.56;42.80;97820.91;5085991;28;20044;-75
2022/04/08 10:41:10;;;;;;;2.72;1.30;;;;;;;11.74;42.78;97707.53;5086005;28;20330;-74
2022/04/08 10:43:44;;;;;;;3.30;1.35;;;;;;;12.26;43.55;97774.78;5068561;28;20044;-75
2022/04/08 10:46:29;;;;;;;2.95;1.73;;;;;;;12.54;41.85;97810.41;5068147;28;20052;-75
2022/04/08 10:49:03;;;;;;;2.28;1.35;;;;;;;12.55;42.77;97806.78;5068017;28;20041;-74
2022/04/08 10:51:45;;;;;;;2.30;1.30;;;;;;;12.60;41.57;97811.69;5085451;28;20040;-74
2022/04/08 10:54:18;;;;;;;2.47;1.35;;;;;;;12.60;42.65;97804.56;5085280;28;20036;-74
2022/04/08 10:56:57;;;;;;;3.58;1.55;;;;;;;12.60;41.87;97798.41;5085426;28;20048;-74
2022/04/08 10:59:30;;;;;;;3.15;1.27;;;;;;;11.99;42.44;97718.69;5085457;28;20040;-74
2022/04/08 11:02:06;;;;;;;3.35;1.63;;;;;;;12.59;43.52;97783.44;5085515;28;20352;-75
2022/04/08 11:04:39;;;;;;;2.10;1.08;;;;;;;12.59;43.26;97789.59;5085625;28;20043;-75
2022/04/08 11:07:07;;;;;;;2.30;1.42;;;;;;;12.63;43.32;97796.31;5067894;28;20067;-74
2022/04/08 11:09:38;;;;;;;5.05;1.65;;;;;;;12.44;43.54;97743.94;5085695;28;20130;-74
2022/04/08 11:12:09;;;;;;;2.58;1.13;;;;;;;12.66;43.31;97773.94;5067873;28;20040;-74
2022/04/08 11:14:38;;;;;;;2.22;1.13;;;;;;;12.72;43.58;97766.25;5085313;28;20044;-75
2022/04/08 11:17:08;;;;;;;1.67;1.10;;;;;;;12.76;42.78;97770.31;5068100;28;20046;-75
2022/04/08 11:19:40;;;;;;;2.25;1.40;;;;;;;12.81;42.52;97769.91;5085816;28;20041;-74
2022/04/08 11:22:13;;;;;;;1.88;1.10;;;;;;;12.89;42.17;97763.91;5085308;28;20052;-74
2022/04/08 11:24:45;;;;;;;2.03;1.40;;;;;;;12.93;43.08;97752.84;5085507;28;20228;-74
2022/04/08 11:27:17;;;;;;;4.60;2.05;;;;;;;13.04;43.78;97752.72;5085294;28;20277;-75
2022/04/08 11:29:49;;;;;;;3.90;1.80;;;;;;;13.16;43.34;97740.13;5088456;28;20296;-74
2022/04/08 11:32:32;;;;;;;2.40;1.50;;;;;;;13.16;41.81;97740.13;5089432;28;20182;-74
2022/04/08 11:35:13;;;;;;;2.83;1.65;;;;;;;13.17;42.25;97725.84;5089350;28;20231;-75
2022/04/08 11:37:45;;;;;;;2.03;1.25;;;;;;;13.24;43.04;97726.97;5089222;28;20243;-75
2022/04/08 11:40:19;;;;;;;2.13;1.10;;;;;;;13.29;42.88;97713.25;5089067;28;20048;-74
2022/04/08 11:42:51;;;;;;;4.75;1.20;;;;;;;13.38;43.05;97715.91;5089058;28;20247;-74
2022/04/08 11:45:24;;;;;;;1.60;1.00;;;;;;;13.41;42.66;97709.47;5089200;28;20041;-75
2022/04/08 11:47:56;;;;;;;2.35;1.25;;;;;;;13.43;43.24;97715.50;5088950;28;20037;-75
2022/04/08 11:50:32;;;;;;;2.70;1.20;;;;;;;13.51;42.46;97704.16;5072399;28;20312;-75
2022/04/08 11:53:05;;;;;;;2.08;1.10;;;;;;;13.28;42.76;97658.38;5071417;28;20040;-75
2022/04/08 11:55:38;;;;;;;2.97;1.10;;;;;;;13.63;42.45;97701.19;5088743;28;20044;-75
2022/04/08 11:58:18;;;;;;;2.87;1.40;;;;;;;13.44;41.35;97634.69;5071257;28;20086;-75
2022/04/08 12:00:51;;;;;;;2.30;1.20;;;;;;;13.78;42.20;97674.94;5088495;28;20040;-75